Bedourie Airport


Codes: YBIE/BEU
Name: Bedourie Airport
City:
Country: Australia
Elevation: 300 ft.
Wikipedia:

Photos at Bedourie Airport


   Photos courtesy of SpottingLog. You can add your own sightings and photos by signing up for a free trial today.



No photos found.

Weather at Bedourie Airport


Time (UTC)DescriptionTempratureWindCloud coverageVisibilityPressureHumidity
19-Apr-2024 03:00Clear Sky26°C16 mph, SE0%10000m1018hPa19%
19-Apr-2024 06:00Clear Sky26°C18 mph, S0%10000m1018hPa18%
19-Apr-2024 09:00Clear Sky24°C16 mph, S0%10000m1018hPa20%
19-Apr-2024 12:00Clear Sky21°C16 mph, S0%10000m1020hPa24%
19-Apr-2024 15:00Clear Sky20°C16 mph, S0%10000m1019hPa33%
19-Apr-2024 18:00Clear Sky18°C13 mph, SE0%10000m1019hPa42%
19-Apr-2024 21:00Clear Sky17°C13 mph, S0%10000m1020hPa55%
20-Apr-2024 00:00Clear Sky21°C18 mph, SE0%10000m1021hPa44%
20-Apr-2024 03:00Clear Sky24°C18 mph, SE0%10000m1019hPa27%
20-Apr-2024 06:00Clear Sky25°C20 mph, SE0%10000m1018hPa22%
20-Apr-2024 09:00Clear Sky23°C18 mph, SE0%10000m1019hPa27%
20-Apr-2024 12:00Clear Sky21°C18 mph, SE0%10000m1021hPa33%
20-Apr-2024 15:00Clear Sky20°C13 mph, SE0%10000m1020hPa40%
20-Apr-2024 18:00Clear Sky19°C13 mph, SE0%10000m1020hPa41%
20-Apr-2024 21:00Clear Sky17°C13 mph, SE0%10000m1021hPa50%
21-Apr-2024 00:00Clear Sky20°C20 mph, SE0%10000m1022hPa44%
21-Apr-2024 03:00Clear Sky25°C22 mph, SE0%10000m1019hPa27%
21-Apr-2024 06:00Clear Sky27°C25 mph, SE0%10000m1017hPa23%
21-Apr-2024 09:00Clear Sky24°C22 mph, SE0%10000m1018hPa28%
21-Apr-2024 12:00Clear Sky23°C20 mph, SE0%10000m1019hPa36%
21-Apr-2024 15:00Clear Sky21°C11 mph, SE0%10000m1018hPa41%
21-Apr-2024 18:00Clear Sky21°C13 mph, SE3%10000m1017hPa50%
21-Apr-2024 21:00Scattered Clouds20°C11 mph, SE44%10000m1019hPa57%
22-Apr-2024 00:00Broken Clouds24°C20 mph, E66%10000m1019hPa45%
22-Apr-2024 03:00Scattered Clouds27°C18 mph, E29%10000m1017hPa34%
22-Apr-2024 06:00Broken Clouds28°C16 mph, SE57%10000m1014hPa29%
22-Apr-2024 09:00Broken Clouds26°C11 mph, SE82%10000m1015hPa33%
22-Apr-2024 12:00Scattered Clouds25°C9 mph, SE43%10000m1016hPa38%
22-Apr-2024 15:00Scattered Clouds23°C9 mph, SE25%10000m1015hPa41%
22-Apr-2024 18:00Broken Clouds22°C11 mph, SE56%10000m1014hPa40%
22-Apr-2024 21:00Overcast Clouds22°C9 mph, SE100%10000m1015hPa44%
23-Apr-2024 00:00Overcast Clouds25°C13 mph, E100%10000m1016hPa44%
23-Apr-2024 03:00Overcast Clouds29°C9 mph, E86%10000m1014hPa34%
23-Apr-2024 06:00Overcast Clouds29°C11 mph, SE93%10000m1013hPa29%
23-Apr-2024 09:00Scattered Clouds27°C9 mph, SE40%10000m1014hPa33%
23-Apr-2024 12:00Scattered Clouds25°C9 mph, SE40%10000m1015hPa36%
23-Apr-2024 15:00Clear Sky24°C9 mph, SE1%10000m1015hPa38%
23-Apr-2024 18:00Clear Sky22°C9 mph, SE0%10000m1015hPa41%
23-Apr-2024 21:00Few Clouds21°C9 mph, SE12%10000m1016hPa44%
24-Apr-2024 00:00Scattered Clouds26°C16 mph, S38%10000m1018hPa33%